Aviation Digital Data Service (ADDS)

Output produced by METARs form (0722 UTC 24 March 2019)
found at http://www.aviationweather.gov/metar/data/
 
TAF SLCO 240450Z 2406/2506 00000KT 9999 FEW017 SCT080 TX30/2420Z TN21 /2410Z 
     BECMG 2412/2415 15008KT
       
SLCB 240700Z 08005KT 9999 NSC 15/08 Q1025
TAF SLCB 240450Z 2406/2506 00000KT 9999 FEW030 TX30/2419Z TN14/2410Z 
     BECMG 2415/2417 14008KT 
     BECMG 2421/2423 14015KT
       
SLLP 240700Z 08007KT 4000E VCFG FEW003 SCT200 04/04 Q1038
TAF SLLP 240450Z 2406/2506 06003KT 4000E VCFG SCT013 TX18/2420Z TNM01/2410Z 
     BECMG 2411/2413 9999 NSW 
     TEMPO 2418/2421 11013KT FEW020 FEW023CB
       
TAF SLPS 240450Z 2406/2506 00000KT 9999 NSC TX36/2419Z TN21/2410Z 
     TEMPO 2413/2415 24005KT SCT020 
     BECMG 2423/2501 00000KT BKN070
       
TAF SLET 240450Z 2406/2506 VRB02KT 9999 SCT070 TX32/2419ZZ TN20/2411Z 
     BECMG 2415/2418 SCT020 
     BECMG 2423/2501 19008KT SCT023 BKN070 
     PROB30 
     TEMPO 2503/2505 6000 RA
       
SLVR 240700Z 29002KT 9999 FEW025 BKN070 24/22 Q1013
TAF SLVR 240450Z 2406/2506 VRB02KT 9999 SCT070 TX32/2419Z TN20/2411Z 
     BECMG 2415/2418 SCT020 
     BECMG 2423/2501 19008KT SCT023 BKN070 
     PROB30 
     TEMPO 2503/2505 5000 RA
       
TAF SLTJ 240450Z 2406/2506 00000KT 9999 SCT020 TX28/2419Z TN14/2410Z 
     BECMG 2415/2417 14008KT 
     TEMPO 2419/2421 14015KT FEW036CB
       
TAF SLTR 240450Z 2406/2506 00000KT 9999 FEW017 SCT080 TX31/2420Z TN21 /2410Z 
     BECMG 2412/2415 15008KT